sensor_id;sensor_type;location;lat;lon;timestamp;P1;durP1;ratioP1;P2;durP2;ratioP2
45366;SDS011;31100;55.848;37.636;2022-12-10T00:02:08;37.30;;;16.60;;
45366;SDS011;31100;55.848;37.636;2022-12-10T00:04:34;34.70;;;16.25;;
45366;SDS011;31100;55.848;37.636;2022-12-10T00:07:00;39.60;;;17.02;;
45366;SDS011;31100;55.848;37.636;2022-12-10T00:09:26;36.80;;;15.90;;
45366;SDS011;31100;55.848;37.636;2022-12-10T00:11:51;40.30;;;17.30;;
45366;SDS011;31100;55.848;37.636;2022-12-10T00:14:17;33.95;;;15.50;;
45366;SDS011;31100;55.848;37.636;2022-12-10T00:16:43;38.78;;;15.40;;
45366;SDS011;31100;55.848;37.636;2022-12-10T00:19:09;35.58;;;17.08;;
45366;SDS011;31100;55.848;37.636;2022-12-10T00:21:35;35.65;;;15.52;;
45366;SDS011;31100;55.848;37.636;2022-12-10T00:24:02;35.00;;;15.65;;
45366;SDS011;31100;55.848;37.636;2022-12-10T00:26:35;37.65;;;15.95;;
45366;SDS011;31100;55.848;37.636;2022-12-10T00:31:29;34.90;;;16.63;;
45366;SDS011;31100;55.848;37.636;2022-12-10T00:33:57;36.80;;;15.63;;
45366;SDS011;31100;55.848;37.636;2022-12-10T00:36:28;36.90;;;15.07;;
45366;SDS011;31100;55.848;37.636;2022-12-10T00:38:55;39.25;;;16.15;;
45366;SDS011;31100;55.848;37.636;2022-12-10T00:41:22;38.28;;;15.95;;
45366;SDS011;31100;55.848;37.636;2022-12-10T00:43:47;35.55;;;16.23;;
45366;SDS011;31100;55.848;37.636;2022-12-10T00:46:14;36.47;;;15.95;;
45366;SDS011;31100;55.848;37.636;2022-12-10T00:48:41;41.80;;;16.15;;
45366;SDS011;31100;55.848;37.636;2022-12-10T00:51:08;37.47;;;16.05;;
45366;SDS011;31100;55.848;37.636;2022-12-10T00:53:38;40.63;;;16.58;;
45366;SDS011;31100;55.848;37.636;2022-12-10T00:56:05;36.83;;;15.40;;
45366;SDS011;31100;55.848;37.636;2022-12-10T00:58:32;39.63;;;17.17;;
45366;SDS011;31100;55.848;37.636;2022-12-10T01:01:09;34.33;;;14.63;;
45366;SDS011;31100;55.848;37.636;2022-12-10T01:03:38;41.22;;;15.90;;
45366;SDS011;31100;55.848;37.636;2022-12-10T01:08:39;36.22;;;14.65;;
45366;SDS011;31100;55.848;37.636;2022-12-10T01:11:05;37.03;;;14.45;;
45366;SDS011;31100;55.848;37.636;2022-12-10T01:13:31;42.30;;;16.40;;
45366;SDS011;31100;55.848;37.636;2022-12-10T01:16:01;39.38;;;15.70;;
45366;SDS011;31100;55.848;37.636;2022-12-10T01:18:27;40.38;;;16.13;;
45366;SDS011;31100;55.848;37.636;2022-12-10T01:20:53;40.15;;;15.50;;
45366;SDS011;31100;55.848;37.636;2022-12-10T01:23:19;41.47;;;14.63;;
45366;SDS011;31100;55.848;37.636;2022-12-10T01:25:44;36.03;;;14.75;;
45366;SDS011;31100;55.848;37.636;2022-12-10T01:28:10;36.88;;;15.32;;
45366;SDS011;31100;55.848;37.636;2022-12-10T01:30:35;40.55;;;15.55;;
45366;SDS011;31100;55.848;37.636;2022-12-10T01:33:01;40.33;;;15.80;;
45366;SDS011;31100;55.848;37.636;2022-12-10T01:35:26;35.15;;;14.38;;
45366;SDS011;31100;55.848;37.636;2022-12-10T01:37:52;40.08;;;15.75;;
45366;SDS011;31100;55.848;37.636;2022-12-10T01:40:18;34.53;;;15.73;;
45366;SDS011;31100;55.848;37.636;2022-12-10T01:42:43;38.67;;;16.80;;
45366;SDS011;31100;55.848;37.636;2022-12-10T01:45:12;40.85;;;15.45;;
45366;SDS011;31100;55.848;37.636;2022-12-10T01:47:38;38.70;;;14.00;;
45366;SDS011;31100;55.848;37.636;2022-12-10T01:50:04;40.55;;;16.48;;
45366;SDS011;31100;55.848;37.636;2022-12-10T01:52:30;43.28;;;16.48;;
45366;SDS011;31100;55.848;37.636;2022-12-10T01:54:56;42.20;;;15.98;;
45366;SDS011;31100;55.848;37.636;2022-12-10T01:57:25;38.85;;;16.17;;
45366;SDS011;31100;55.848;37.636;2022-12-10T01:59:56;45.30;;;17.23;;
45366;SDS011;31100;55.848;37.636;2022-12-10T02:02:28;49.65;;;17.50;;
45366;SDS011;31100;55.848;37.636;2022-12-10T02:07:59;46.60;;;17.20;;
45366;SDS011;31100;55.848;37.636;2022-12-10T02:13:25;54.65;;;19.10;;
45366;SDS011;31100;55.848;37.636;2022-12-10T02:16:12;49.58;;;18.75;;
45366;SDS011;31100;55.848;37.636;2022-12-10T02:19:04;55.08;;;20.23;;
45366;SDS011;31100;55.848;37.636;2022-12-10T02:21:47;51.45;;;20.48;;
45366;SDS011;31100;55.848;37.636;2022-12-10T02:24:15;53.60;;;19.17;;
45366;SDS011;31100;55.848;37.636;2022-12-10T02:29:12;52.90;;;18.70;;
45366;SDS011;31100;55.848;37.636;2022-12-10T02:31:51;56.78;;;20.05;;
45366;SDS011;31100;55.848;37.636;2022-12-10T02:34:18;54.40;;;23.50;;
45366;SDS011;31100;55.848;37.636;2022-12-10T02:36:45;63.05;;;22.10;;
45366;SDS011;31100;55.848;37.636;2022-12-10T02:39:14;56.38;;;19.50;;
45366;SDS011;31100;55.848;37.636;2022-12-10T02:41:45;52.08;;;20.15;;
45366;SDS011;31100;55.848;37.636;2022-12-10T02:44:13;54.90;;;22.33;;
45366;SDS011;31100;55.848;37.636;2022-12-10T02:46:42;57.13;;;20.70;;
45366;SDS011;31100;55.848;37.636;2022-12-10T02:49:09;67.22;;;22.42;;
45366;SDS011;31100;55.848;37.636;2022-12-10T02:51:37;61.13;;;20.92;;
45366;SDS011;31100;55.848;37.636;2022-12-10T02:54:03;56.70;;;20.67;;
45366;SDS011;31100;55.848;37.636;2022-12-10T02:56:35;63.28;;;21.70;;
45366;SDS011;31100;55.848;37.636;2022-12-10T03:04:33;61.75;;;21.40;;
45366;SDS011;31100;55.848;37.636;2022-12-10T03:07:06;66.80;;;23.73;;
45366;SDS011;31100;55.848;37.636;2022-12-10T03:09:37;57.20;;;21.75;;
45366;SDS011;31100;55.848;37.636;2022-12-10T03:12:11;59.67;;;22.08;;
45366;SDS011;31100;55.848;37.636;2022-12-10T03:14:45;62.95;;;21.27;;
45366;SDS011;31100;55.848;37.636;2022-12-10T03:17:11;59.08;;;22.00;;
45366;SDS011;31100;55.848;37.636;2022-12-10T03:19:42;63.13;;;21.67;;
45366;SDS011;31100;55.848;37.636;2022-12-10T03:22:10;67.50;;;22.50;;
45366;SDS011;31100;55.848;37.636;2022-12-10T03:24:37;53.55;;;21.90;;
45366;SDS011;31100;55.848;37.636;2022-12-10T03:27:05;62.25;;;22.23;;
45366;SDS011;31100;55.848;37.636;2022-12-10T03:29:36;63.35;;;20.75;;
45366;SDS011;31100;55.848;37.636;2022-12-10T03:32:04;60.47;;;21.55;;
45366;SDS011;31100;55.848;37.636;2022-12-10T03:34:32;61.75;;;21.45;;
45366;SDS011;31100;55.848;37.636;2022-12-10T03:36:59;54.97;;;21.77;;
45366;SDS011;31100;55.848;37.636;2022-12-10T03:39:28;57.38;;;21.50;;
45366;SDS011;31100;55.848;37.636;2022-12-10T03:41:54;58.28;;;21.90;;
45366;SDS011;31100;55.848;37.636;2022-12-10T03:44:33;62.20;;;21.27;;
45366;SDS011;31100;55.848;37.636;2022-12-10T03:47:00;62.50;;;22.00;;
45366;SDS011;31100;55.848;37.636;2022-12-10T03:49:26;57.88;;;22.88;;
45366;SDS011;31100;55.848;37.636;2022-12-10T03:51:52;61.13;;;22.10;;
45366;SDS011;31100;55.848;37.636;2022-12-10T03:54:18;57.05;;;20.73;;
45366;SDS011;31100;55.848;37.636;2022-12-10T03:56:43;62.92;;;22.83;;
45366;SDS011;31100;55.848;37.636;2022-12-10T03:59:09;58.05;;;21.38;;
45366;SDS011;31100;55.848;37.636;2022-12-10T04:01:34;60.85;;;23.35;;
45366;SDS011;31100;55.848;37.636;2022-12-10T04:04:00;60.80;;;23.48;;
45366;SDS011;31100;55.848;37.636;2022-12-10T04:06:26;64.57;;;24.80;;
45366;SDS011;31100;55.848;37.636;2022-12-10T04:08:52;60.90;;;22.88;;
45366;SDS011;31100;55.848;37.636;2022-12-10T04:11:18;60.22;;;24.58;;
45366;SDS011;31100;55.848;37.636;2022-12-10T04:13:43;57.10;;;22.60;;
45366;SDS011;31100;55.848;37.636;2022-12-10T04:16:29;65.32;;;23.08;;
45366;SDS011;31100;55.848;37.636;2022-12-10T04:19:09;62.08;;;23.25;;
45366;SDS011;31100;55.848;37.636;2022-12-10T04:21:40;65.97;;;24.58;;
45366;SDS011;31100;55.848;37.636;2022-12-10T04:24:26;60.78;;;23.75;;
45366;SDS011;31100;55.848;37.636;2022-12-10T04:27:32;63.53;;;23.40;;
45366;SDS011;31100;55.848;37.636;2022-12-10T04:29:58;61.50;;;23.50;;
45366;SDS011;31100;55.848;37.636;2022-12-10T04:32:25;71.20;;;25.65;;
45366;SDS011;31100;55.848;37.636;2022-12-10T04:34:52;64.85;;;27.70;;
45366;SDS011;31100;55.848;37.636;2022-12-10T04:37:18;65.18;;;24.92;;
45366;SDS011;31100;55.848;37.636;2022-12-10T04:39:44;65.38;;;25.75;;
45366;SDS011;31100;55.848;37.636;2022-12-10T04:42:10;59.78;;;23.08;;
45366;SDS011;31100;55.848;37.636;2022-12-10T04:44:36;66.07;;;25.20;;
45366;SDS011;31100;55.848;37.636;2022-12-10T04:47:03;62.63;;;23.90;;
45366;SDS011;31100;55.848;37.636;2022-12-10T04:49:29;56.67;;;23.95;;
45366;SDS011;31100;55.848;37.636;2022-12-10T04:51:55;61.85;;;25.00;;
45366;SDS011;31100;55.848;37.636;2022-12-10T04:54:21;67.07;;;24.73;;
45366;SDS011;31100;55.848;37.636;2022-12-10T04:56:47;66.22;;;24.83;;
45366;SDS011;31100;55.848;37.636;2022-12-10T04:59:12;58.28;;;23.30;;
45366;SDS011;31100;55.848;37.636;2022-12-10T05:01:38;56.70;;;23.90;;
45366;SDS011;31100;55.848;37.636;2022-12-10T05:04:05;64.65;;;25.17;;
45366;SDS011;31100;55.848;37.636;2022-12-10T05:06:32;63.45;;;24.58;;
45366;SDS011;31100;55.848;37.636;2022-12-10T05:08:58;65.22;;;25.05;;
45366;SDS011;31100;55.848;37.636;2022-12-10T05:11:25;60.95;;;24.67;;
45366;SDS011;31100;55.848;37.636;2022-12-10T05:13:52;63.65;;;24.90;;
45366;SDS011;31100;55.848;37.636;2022-12-10T05:16:19;61.92;;;24.30;;
45366;SDS011;31100;55.848;37.636;2022-12-10T05:18:45;57.97;;;24.33;;
45366;SDS011;31100;55.848;37.636;2022-12-10T05:21:12;63.13;;;26.10;;
45366;SDS011;31100;55.848;37.636;2022-12-10T05:23:40;63.53;;;25.48;;
45366;SDS011;31100;55.848;37.636;2022-12-10T05:26:08;71.75;;;27.75;;
45366;SDS011;31100;55.848;37.636;2022-12-10T05:28:35;64.88;;;27.52;;
45366;SDS011;31100;55.848;37.636;2022-12-10T05:31:05;60.90;;;26.38;;
45366;SDS011;31100;55.848;37.636;2022-12-10T05:33:31;69.05;;;28.55;;
45366;SDS011;31100;55.848;37.636;2022-12-10T05:35:58;69.13;;;27.52;;
45366;SDS011;31100;55.848;37.636;2022-12-10T05:38:25;61.38;;;25.42;;
45366;SDS011;31100;55.848;37.636;2022-12-10T05:40:51;60.78;;;26.08;;
45366;SDS011;31100;55.848;37.636;2022-12-10T05:43:17;64.65;;;26.45;;
45366;SDS011;31100;55.848;37.636;2022-12-10T05:45:43;69.43;;;27.38;;
45366;SDS011;31100;55.848;37.636;2022-12-10T05:48:12;75.70;;;31.15;;
45366;SDS011;31100;55.848;37.636;2022-12-10T05:50:39;73.85;;;28.52;;
45366;SDS011;31100;55.848;37.636;2022-12-10T05:53:06;65.78;;;28.98;;
45366;SDS011;31100;55.848;37.636;2022-12-10T05:55:31;68.82;;;29.42;;
45366;SDS011;31100;55.848;37.636;2022-12-10T05:57:58;66.93;;;27.88;;
45366;SDS011;31100;55.848;37.636;2022-12-10T06:00:25;64.28;;;26.73;;
45366;SDS011;31100;55.848;37.636;2022-12-10T06:02:51;73.70;;;28.77;;
45366;SDS011;31100;55.848;37.636;2022-12-10T06:05:17;61.58;;;26.80;;
45366;SDS011;31100;55.848;37.636;2022-12-10T06:07:43;67.43;;;28.25;;
45366;SDS011;31100;55.848;37.636;2022-12-10T06:10:09;60.33;;;26.20;;
45366;SDS011;31100;55.848;37.636;2022-12-10T06:12:35;62.65;;;26.45;;
45366;SDS011;31100;55.848;37.636;2022-12-10T06:15:04;64.40;;;26.70;;
45366;SDS011;31100;55.848;37.636;2022-12-10T06:17:33;65.63;;;28.20;;
45366;SDS011;31100;55.848;37.636;2022-12-10T06:20:05;72.43;;;29.60;;
45366;SDS011;31100;55.848;37.636;2022-12-10T06:22:34;65.03;;;26.65;;
45366;SDS011;31100;55.848;37.636;2022-12-10T06:25:08;65.22;;;26.38;;
45366;SDS011;31100;55.848;37.636;2022-12-10T06:27:34;66.07;;;28.05;;
45366;SDS011;31100;55.848;37.636;2022-12-10T06:29:59;62.10;;;27.75;;
45366;SDS011;31100;55.848;37.636;2022-12-10T06:32:31;69.55;;;27.85;;
45366;SDS011;31100;55.848;37.636;2022-12-10T06:34:57;65.03;;;30.63;;
45366;SDS011;31100;55.848;37.636;2022-12-10T06:37:23;74.43;;;29.75;;
45366;SDS011;31100;55.848;37.636;2022-12-10T06:39:52;69.18;;;29.17;;
45366;SDS011;31100;55.848;37.636;2022-12-10T06:42:19;71.85;;;29.77;;
45366;SDS011;31100;55.848;37.636;2022-12-10T06:44:45;73.97;;;30.00;;
45366;SDS011;31100;55.848;37.636;2022-12-10T06:47:11;70.40;;;28.10;;
45366;SDS011;31100;55.848;37.636;2022-12-10T06:49:40;67.60;;;28.15;;
45366;SDS011;31100;55.848;37.636;2022-12-10T06:52:09;67.05;;;28.05;;
45366;SDS011;31100;55.848;37.636;2022-12-10T06:54:44;65.65;;;27.33;;
45366;SDS011;31100;55.848;37.636;2022-12-10T06:57:10;67.80;;;27.65;;
45366;SDS011;31100;55.848;37.636;2022-12-10T06:59:39;69.22;;;29.73;;
45366;SDS011;31100;55.848;37.636;2022-12-10T07:02:13;70.82;;;27.30;;
45366;SDS011;31100;55.848;37.636;2022-12-10T07:04:41;64.47;;;27.88;;
45366;SDS011;31100;55.848;37.636;2022-12-10T07:07:09;66.57;;;27.55;;
45366;SDS011;31100;55.848;37.636;2022-12-10T07:09:35;70.40;;;27.08;;
45366;SDS011;31100;55.848;37.636;2022-12-10T07:12:24;68.07;;;27.63;;
45366;SDS011;31100;55.848;37.636;2022-12-10T07:14:52;70.63;;;27.30;;
45366;SDS011;31100;55.848;37.636;2022-12-10T07:17:21;69.10;;;26.73;;
45366;SDS011;31100;55.848;37.636;2022-12-10T07:19:47;69.28;;;27.42;;
45366;SDS011;31100;55.848;37.636;2022-12-10T07:22:15;72.30;;;28.20;;
45366;SDS011;31100;55.848;37.636;2022-12-10T07:24:41;72.15;;;27.80;;
45366;SDS011;31100;55.848;37.636;2022-12-10T07:27:07;70.88;;;28.70;;
45366;SDS011;31100;55.848;37.636;2022-12-10T07:29:33;75.15;;;29.60;;
45366;SDS011;31100;55.848;37.636;2022-12-10T07:31:59;69.72;;;26.55;;
45366;SDS011;31100;55.848;37.636;2022-12-10T07:34:28;64.50;;;26.88;;
45366;SDS011;31100;55.848;37.636;2022-12-10T07:36:54;71.03;;;28.80;;
45366;SDS011;31100;55.848;37.636;2022-12-10T07:39:26;75.38;;;29.05;;
45366;SDS011;31100;55.848;37.636;2022-12-10T07:41:52;78.63;;;28.33;;
45366;SDS011;31100;55.848;37.636;2022-12-10T07:44:28;81.25;;;28.60;;
45366;SDS011;31100;55.848;37.636;2022-12-10T07:46:54;76.25;;;28.02;;
45366;SDS011;31100;55.848;37.636;2022-12-10T07:49:21;78.32;;;28.10;;
45366;SDS011;31100;55.848;37.636;2022-12-10T07:51:47;81.78;;;28.77;;
45366;SDS011;31100;55.848;37.636;2022-12-10T07:54:16;74.53;;;27.92;;
45366;SDS011;31100;55.848;37.636;2022-12-10T07:56:42;73.28;;;29.58;;
45366;SDS011;31100;55.848;37.636;2022-12-10T07:59:08;79.05;;;28.27;;
45366;SDS011;31100;55.848;37.636;2022-12-10T08:01:39;86.22;;;29.30;;
45366;SDS011;31100;55.848;37.636;2022-12-10T08:04:05;77.57;;;29.02;;
45366;SDS011;31100;55.848;37.636;2022-12-10T08:06:34;85.47;;;30.38;;
45366;SDS011;31100;55.848;37.636;2022-12-10T08:09:02;72.80;;;28.50;;
45366;SDS011;31100;55.848;37.636;2022-12-10T08:11:28;82.80;;;30.50;;
45366;SDS011;31100;55.848;37.636;2022-12-10T08:13:54;80.82;;;27.83;;
45366;SDS011;31100;55.848;37.636;2022-12-10T08:16:21;69.15;;;26.75;;
45366;SDS011;31100;55.848;37.636;2022-12-10T08:18:50;79.78;;;27.92;;
45366;SDS011;31100;55.848;37.636;2022-12-10T08:21:27;75.97;;;28.88;;
45366;SDS011;31100;55.848;37.636;2022-12-10T08:23:59;72.63;;;26.85;;
45366;SDS011;31100;55.848;37.636;2022-12-10T08:26:33;76.50;;;26.70;;
45366;SDS011;31100;55.848;37.636;2022-12-10T08:28:58;77.78;;;25.63;;
45366;SDS011;31100;55.848;37.636;2022-12-10T08:31:33;89.43;;;27.85;;
45366;SDS011;31100;55.848;37.636;2022-12-10T08:33:59;80.30;;;25.80;;
45366;SDS011;31100;55.848;37.636;2022-12-10T08:36:27;78.13;;;25.38;;
45366;SDS011;31100;55.848;37.636;2022-12-10T08:38:53;78.93;;;27.25;;
45366;SDS011;31100;55.848;37.636;2022-12-10T08:41:20;90.28;;;29.15;;
45366;SDS011;31100;55.848;37.636;2022-12-10T08:43:47;75.20;;;26.15;;
45366;SDS011;31100;55.848;37.636;2022-12-10T08:46:13;71.18;;;24.23;;
45366;SDS011;31100;55.848;37.636;2022-12-10T08:48:42;76.63;;;25.77;;
45366;SDS011;31100;55.848;37.636;2022-12-10T08:51:13;70.38;;;24.67;;
45366;SDS011;31100;55.848;37.636;2022-12-10T08:53:43;77.22;;;26.98;;
45366;SDS011;31100;55.848;37.636;2022-12-10T08:56:10;77.75;;;29.30;;
45366;SDS011;31100;55.848;37.636;2022-12-10T08:58:37;84.85;;;27.90;;
45366;SDS011;31100;55.848;37.636;2022-12-10T09:01:12;82.22;;;28.33;;
45366;SDS011;31100;55.848;37.636;2022-12-10T09:03:42;75.80;;;25.77;;
45366;SDS011;31100;55.848;37.636;2022-12-10T09:06:09;68.90;;;26.85;;
45366;SDS011;31100;55.848;37.636;2022-12-10T09:08:39;67.53;;;26.70;;
45366;SDS011;31100;55.848;37.636;2022-12-10T09:11:09;78.57;;;27.58;;
45366;SDS011;31100;55.848;37.636;2022-12-10T09:13:39;66.30;;;25.80;;
45366;SDS011;31100;55.848;37.636;2022-12-10T09:16:08;64.78;;;26.95;;
45366;SDS011;31100;55.848;37.636;2022-12-10T09:18:34;69.53;;;26.45;;
45366;SDS011;31100;55.848;37.636;2022-12-10T09:21:00;77.13;;;26.50;;
45366;SDS011;31100;55.848;37.636;2022-12-10T09:23:29;65.10;;;25.40;;
45366;SDS011;31100;55.848;37.636;2022-12-10T09:25:58;67.18;;;25.83;;
45366;SDS011;31100;55.848;37.636;2022-12-10T09:28:29;69.95;;;27.27;;
45366;SDS011;31100;55.848;37.636;2022-12-10T09:30:58;66.97;;;24.90;;
45366;SDS011;31100;55.848;37.636;2022-12-10T09:33:28;75.10;;;27.65;;
45366;SDS011;31100;55.848;37.636;2022-12-10T09:35:54;72.68;;;25.33;;
45366;SDS011;31100;55.848;37.636;2022-12-10T09:38:33;70.90;;;27.40;;
45366;SDS011;31100;55.848;37.636;2022-12-10T09:43:48;70.90;;;27.25;;
45366;SDS011;31100;55.848;37.636;2022-12-10T09:49:06;65.20;;;24.00;;
45366;SDS011;31100;55.848;37.636;2022-12-10T09:51:45;66.82;;;24.48;;
45366;SDS011;31100;55.848;37.636;2022-12-10T09:54:27;71.43;;;24.77;;
45366;SDS011;31100;55.848;37.636;2022-12-10T09:56:57;69.10;;;26.05;;
45366;SDS011;31100;55.848;37.636;2022-12-10T09:59:46;74.68;;;25.23;;
45366;SDS011;31100;55.848;37.636;2022-12-10T10:02:30;73.03;;;27.02;;
45366;SDS011;31100;55.848;37.636;2022-12-10T10:07:52;73.75;;;27.05;;
45366;SDS011;31100;55.848;37.636;2022-12-10T10:10:32;72.88;;;26.27;;
45366;SDS011;31100;55.848;37.636;2022-12-10T10:15:44;75.70;;;28.05;;
45366;SDS011;31100;55.848;37.636;2022-12-10T10:21:32;81.30;;;28.35;;
45366;SDS011;31100;55.848;37.636;2022-12-10T10:24:03;76.55;;;28.35;;
45366;SDS011;31100;55.848;37.636;2022-12-10T10:26:37;78.53;;;28.25;;
45366;SDS011;31100;55.848;37.636;2022-12-10T10:29:33;87.85;;;28.67;;
45366;SDS011;31100;55.848;37.636;2022-12-10T10:33:07;79.95;;;27.40;;
45366;SDS011;31100;55.848;37.636;2022-12-10T10:36:36;74.03;;;26.70;;
45366;SDS011;31100;55.848;37.636;2022-12-10T10:46:01;74.25;;;26.13;;
45366;SDS011;31100;55.848;37.636;2022-12-10T10:49:43;64.65;;;23.08;;
45366;SDS011;31100;55.848;37.636;2022-12-10T10:53:01;70.28;;;24.33;;
45366;SDS011;31100;55.848;37.636;2022-12-10T10:59:52;73.05;;;25.10;;
45366;SDS011;31100;55.848;37.636;2022-12-10T11:03:07;65.13;;;23.50;;
45366;SDS011;31100;55.848;37.636;2022-12-10T11:06:28;66.47;;;23.60;;
45366;SDS011;31100;55.848;37.636;2022-12-10T11:09:40;67.50;;;24.98;;
45366;SDS011;31100;55.848;37.636;2022-12-10T11:15:00;67.05;;;24.15;;
45366;SDS011;31100;55.848;37.636;2022-12-10T11:17:29;68.78;;;24.85;;
45366;SDS011;31100;55.848;37.636;2022-12-10T11:19:59;65.55;;;24.63;;
45366;SDS011;31100;55.848;37.636;2022-12-10T11:22:53;75.55;;;25.45;;
45366;SDS011;31100;55.848;37.636;2022-12-10T11:25:49;59.17;;;24.25;;
45366;SDS011;31100;55.848;37.636;2022-12-10T11:44:10;69.13;;;23.80;;
45366;SDS011;31100;55.848;37.636;2022-12-10T11:49:42;63.50;;;23.20;;
45366;SDS011;31100;55.848;37.636;2022-12-10T11:55:25;70.93;;;25.48;;
45366;SDS011;31100;55.848;37.636;2022-12-10T12:07:03;72.85;;;26.58;;
45366;SDS011;31100;55.848;37.636;2022-12-10T12:15:32;73.68;;;26.75;;
45366;SDS011;31100;55.848;37.636;2022-12-10T12:18:25;74.50;;;26.67;;
45366;SDS011;31100;55.848;37.636;2022-12-10T12:21:27;68.90;;;24.42;;
45366;SDS011;31100;55.848;37.636;2022-12-10T12:27:33;65.57;;;22.40;;
45366;SDS011;31100;55.848;37.636;2022-12-10T12:35:19;66.40;;;23.75;;
45366;SDS011;31100;55.848;37.636;2022-12-10T12:40:42;66.10;;;25.23;;
45366;SDS011;31100;55.848;37.636;2022-12-10T12:43:14;68.72;;;24.05;;
45366;SDS011;31100;55.848;37.636;2022-12-10T12:45:48;61.05;;;22.88;;
45366;SDS011;31100;55.848;37.636;2022-12-10T12:50:50;55.35;;;21.02;;
45366;SDS011;31100;55.848;37.636;2022-12-10T12:53:21;59.17;;;22.77;;
45366;SDS011;31100;55.848;37.636;2022-12-10T13:01:43;54.42;;;22.30;;
45366;SDS011;31100;55.848;37.636;2022-12-10T13:04:13;50.10;;;20.20;;
45366;SDS011;31100;55.848;37.636;2022-12-10T13:06:39;55.55;;;21.67;;
45366;SDS011;31100;55.848;37.636;2022-12-10T13:11:42;55.00;;;21.85;;
45366;SDS011;31100;55.848;37.636;2022-12-10T13:21:56;53.95;;;21.58;;
45366;SDS011;31100;55.848;37.636;2022-12-10T13:29:58;44.63;;;18.77;;
45366;SDS011;31100;55.848;37.636;2022-12-10T13:37:33;47.20;;;20.10;;
45366;SDS011;31100;55.848;37.636;2022-12-10T13:46:20;56.42;;;21.33;;
45366;SDS011;31100;55.848;37.636;2022-12-10T13:48:46;47.95;;;18.60;;
45366;SDS011;31100;55.848;37.636;2022-12-10T13:54:24;50.97;;;19.95;;
45366;SDS011;31100;55.848;37.636;2022-12-10T14:07:45;49.83;;;19.75;;
45366;SDS011;31100;55.848;37.636;2022-12-10T14:10:15;50.97;;;19.23;;
45366;SDS011;31100;55.848;37.636;2022-12-10T14:12:42;50.72;;;20.23;;
45366;SDS011;31100;55.848;37.636;2022-12-10T14:15:19;50.83;;;19.25;;
45366;SDS011;31100;55.848;37.636;2022-12-10T14:17:48;53.25;;;20.50;;
45366;SDS011;31100;55.848;37.636;2022-12-10T14:20:16;45.17;;;17.90;;
45366;SDS011;31100;55.848;37.636;2022-12-10T14:22:54;45.15;;;18.50;;
45366;SDS011;31100;55.848;37.636;2022-12-10T14:25:44;41.53;;;17.42;;
45366;SDS011;31100;55.848;37.636;2022-12-10T14:28:13;45.78;;;18.10;;
45366;SDS011;31100;55.848;37.636;2022-12-10T14:30:44;45.63;;;19.10;;
45366;SDS011;31100;55.848;37.636;2022-12-10T14:33:14;46.63;;;16.85;;
45366;SDS011;31100;55.848;37.636;2022-12-10T14:35:41;49.65;;;19.45;;
45366;SDS011;31100;55.848;37.636;2022-12-10T14:38:20;42.20;;;18.25;;
45366;SDS011;31100;55.848;37.636;2022-12-10T14:40:48;45.58;;;18.38;;
45366;SDS011;31100;55.848;37.636;2022-12-10T14:43:18;41.60;;;17.38;;
45366;SDS011;31100;55.848;37.636;2022-12-10T14:45:48;38.63;;;17.80;;
45366;SDS011;31100;55.848;37.636;2022-12-10T14:48:19;38.50;;;16.08;;
45366;SDS011;31100;55.848;37.636;2022-12-10T14:50:47;39.35;;;15.90;;
45366;SDS011;31100;55.848;37.636;2022-12-10T14:53:20;44.00;;;17.40;;
45366;SDS011;31100;55.848;37.636;2022-12-10T14:56:00;36.88;;;15.65;;
45366;SDS011;31100;55.848;37.636;2022-12-10T14:58:34;44.95;;;17.77;;
45366;SDS011;31100;55.848;37.636;2022-12-10T15:01:05;42.50;;;16.70;;
45366;SDS011;31100;55.848;37.636;2022-12-10T15:03:35;40.05;;;15.93;;
45366;SDS011;31100;55.848;37.636;2022-12-10T15:06:08;41.85;;;18.00;;
45366;SDS011;31100;55.848;37.636;2022-12-10T15:08:36;39.40;;;16.73;;
45366;SDS011;31100;55.848;37.636;2022-12-10T15:11:05;34.90;;;16.42;;
45366;SDS011;31100;55.848;37.636;2022-12-10T15:13:40;38.38;;;15.88;;
45366;SDS011;31100;55.848;37.636;2022-12-10T15:19:09;40.08;;;15.95;;
45366;SDS011;31100;55.848;37.636;2022-12-10T15:22:00;38.42;;;16.63;;
45366;SDS011;31100;55.848;37.636;2022-12-10T15:24:44;39.97;;;15.68;;
45366;SDS011;31100;55.848;37.636;2022-12-10T15:27:18;35.08;;;16.35;;
45366;SDS011;31100;55.848;37.636;2022-12-10T15:29:48;40.50;;;16.73;;
45366;SDS011;31100;55.848;37.636;2022-12-10T15:35:01;38.55;;;17.63;;
45366;SDS011;31100;55.848;37.636;2022-12-10T15:37:35;37.75;;;16.45;;
45366;SDS011;31100;55.848;37.636;2022-12-10T15:40:05;41.08;;;18.42;;
45366;SDS011;31100;55.848;37.636;2022-12-10T15:42:46;35.45;;;15.35;;
45366;SDS011;31100;55.848;37.636;2022-12-10T15:47:43;34.42;;;15.13;;
45366;SDS011;31100;55.848;37.636;2022-12-10T15:50:11;35.47;;;16.23;;
45366;SDS011;31100;55.848;37.636;2022-12-10T15:52:38;38.30;;;16.58;;
45366;SDS011;31100;55.848;37.636;2022-12-10T15:55:37;36.38;;;16.15;;
45366;SDS011;31100;55.848;37.636;2022-12-10T15:58:12;37.33;;;16.65;;
45366;SDS011;31100;55.848;37.636;2022-12-10T16:00:46;32.03;;;14.85;;
45366;SDS011;31100;55.848;37.636;2022-12-10T16:03:17;36.33;;;17.05;;
45366;SDS011;31100;55.848;37.636;2022-12-10T16:05:46;33.28;;;15.82;;
45366;SDS011;31100;55.848;37.636;2022-12-10T16:08:17;39.42;;;17.25;;
45366;SDS011;31100;55.848;37.636;2022-12-10T16:10:48;35.47;;;16.13;;
45366;SDS011;31100;55.848;37.636;2022-12-10T16:13:23;35.35;;;17.00;;
45366;SDS011;31100;55.848;37.636;2022-12-10T16:15:56;34.78;;;17.25;;
45366;SDS011;31100;55.848;37.636;2022-12-10T16:18:24;33.22;;;15.75;;
45366;SDS011;31100;55.848;37.636;2022-12-10T16:20:50;35.88;;;17.38;;
45366;SDS011;31100;55.848;37.636;2022-12-10T16:23:16;33.08;;;16.80;;
45366;SDS011;31100;55.848;37.636;2022-12-10T16:25:42;38.03;;;16.77;;
45366;SDS011;31100;55.848;37.636;2022-12-10T16:28:12;32.85;;;15.73;;
45366;SDS011;31100;55.848;37.636;2022-12-10T16:30:44;32.67;;;16.08;;
45366;SDS011;31100;55.848;37.636;2022-12-10T16:33:14;32.53;;;14.60;;
45366;SDS011;31100;55.848;37.636;2022-12-10T16:35:55;33.97;;;16.48;;
45366;SDS011;31100;55.848;37.636;2022-12-10T16:38:22;30.20;;;15.05;;
45366;SDS011;31100;55.848;37.636;2022-12-10T16:41:01;31.27;;;15.43;;
45366;SDS011;31100;55.848;37.636;2022-12-10T16:43:59;29.83;;;14.80;;
45366;SDS011;31100;55.848;37.636;2022-12-10T16:46:45;26.48;;;13.75;;
45366;SDS011;31100;55.848;37.636;2022-12-10T16:49:13;30.23;;;14.32;;
45366;SDS011;31100;55.848;37.636;2022-12-10T16:51:39;29.98;;;15.27;;
45366;SDS011;31100;55.848;37.636;2022-12-10T16:54:08;29.73;;;13.73;;
45366;SDS011;31100;55.848;37.636;2022-12-10T16:56:38;27.52;;;14.68;;
45366;SDS011;31100;55.848;37.636;2022-12-10T16:59:07;23.25;;;12.65;;
45366;SDS011;31100;55.848;37.636;2022-12-10T17:01:32;31.27;;;14.75;;
45366;SDS011;31100;55.848;37.636;2022-12-10T17:03:58;29.50;;;14.02;;
45366;SDS011;31100;55.848;37.636;2022-12-10T17:06:25;23.27;;;12.48;;